createdAt,value
2023-02-05T00:01:48.096Z,3.40
2023-02-05T00:04:55.197Z,3.03
2023-02-05T00:08:00.537Z,3.10
2023-02-05T00:11:09.528Z,3.33
2023-02-05T00:14:15.010Z,3.10
2023-02-05T00:17:21.462Z,3.20
2023-02-05T00:20:26.593Z,3.07
2023-02-05T00:23:32.040Z,2.63
2023-02-05T00:26:37.417Z,2.17
2023-02-05T00:29:42.775Z,2.40
2023-02-05T00:32:49.334Z,2.03
2023-02-05T00:35:54.307Z,2.33
2023-02-05T00:38:59.567Z,2.30
2023-02-05T00:42:04.598Z,2.40
2023-02-05T00:45:12.224Z,2.00
2023-02-05T00:48:18.702Z,1.90
2023-02-05T00:51:24.455Z,2.50
2023-02-05T00:54:29.825Z,1.80
2023-02-05T00:57:35.062Z,2.20
2023-02-05T01:00:40.266Z,2.10
2023-02-05T01:03:47.072Z,2.00
2023-02-05T01:06:52.179Z,2.03
2023-02-05T01:09:57.495Z,2.43
2023-02-05T01:13:02.678Z,1.97
2023-02-05T01:16:10.457Z,1.70
2023-02-05T01:19:17.224Z,2.20
2023-02-05T01:22:23.030Z,1.90
2023-02-05T01:25:28.595Z,1.63
2023-02-05T01:28:33.856Z,1.77
2023-02-05T01:31:39.370Z,1.77
2023-02-05T01:34:46.202Z,2.13
2023-02-05T01:37:51.321Z,1.90
2023-02-05T01:40:56.540Z,1.77
2023-02-05T01:44:10.100Z,1.90
2023-02-05T01:47:15.252Z,1.90
2023-02-05T01:50:26.619Z,1.70
2023-02-05T01:53:33.518Z,1.90
2023-02-05T01:56:40.835Z,1.67
2023-02-05T01:59:46.564Z,1.57
2023-02-05T02:02:51.718Z,1.83
2023-02-05T02:05:58.580Z,1.87
2023-02-05T02:09:04.174Z,1.87
2023-02-05T02:12:10.278Z,1.70
2023-02-05T02:15:19.162Z,2.07
2023-02-05T02:18:27.405Z,1.60
2023-02-05T02:22:04.211Z,1.83
2023-02-05T02:25:34.417Z,1.60
2023-02-05T02:28:46.589Z,1.57
2023-02-05T02:31:56.228Z,1.97
2023-02-05T02:35:06.885Z,1.60
2023-02-05T02:38:17.955Z,1.67
2023-02-05T02:41:29.174Z,1.77
2023-02-05T02:44:38.998Z,1.30
2023-02-05T02:47:48.650Z,1.57
2023-02-05T02:50:55.715Z,1.60
2023-02-05T02:54:03.070Z,1.30
2023-02-05T02:57:10.002Z,1.60
2023-02-05T03:00:19.369Z,1.53
2023-02-05T03:03:27.522Z,1.50
2023-02-05T03:06:34.413Z,1.50
2023-02-05T03:09:43.642Z,1.63
2023-02-05T03:12:49.260Z,1.47
2023-02-05T03:15:57.998Z,1.53
2023-02-05T03:19:05.578Z,1.30
2023-02-05T03:22:12.043Z,1.33
2023-02-05T03:25:18.495Z,1.53
2023-02-05T03:28:24.088Z,1.33
2023-02-05T03:31:43.702Z,1.40
2023-02-05T03:34:55.136Z,1.40
2023-02-05T03:38:30.671Z,1.43
2023-02-05T03:41:56.930Z,1.20
2023-02-05T03:45:29.625Z,1.30
2023-02-05T03:48:56.139Z,1.30
2023-02-05T03:52:05.527Z,1.40
2023-02-05T03:55:16.920Z,1.20
2023-02-05T03:58:26.142Z,1.20
2023-02-05T04:01:32.993Z,1.23
2023-02-05T04:04:39.835Z,1.30
2023-02-05T04:07:46.481Z,1.33
2023-02-05T04:10:51.653Z,1.50
2023-02-05T04:13:57.098Z,1.33
2023-02-05T04:17:03.198Z,1.10
2023-02-05T04:20:11.037Z,1.10
2023-02-05T04:23:16.606Z,1.17
2023-02-05T04:26:24.208Z,1.40
2023-02-05T04:29:38.127Z,1.20
2023-02-05T04:32:44.084Z,1.30
2023-02-05T04:35:51.480Z,1.20
2023-02-05T04:38:56.687Z,1.10
2023-02-05T04:42:01.984Z,1.30
2023-02-05T04:45:07.704Z,1.20
2023-02-05T04:48:15.914Z,1.40
2023-02-05T04:51:22.534Z,1.00
2023-02-05T04:54:29.049Z,1.30
2023-02-05T04:57:34.216Z,1.30
2023-02-05T05:00:39.081Z,1.10
2023-02-05T05:03:44.754Z,1.10
2023-02-05T05:06:50.930Z,1.20
2023-02-05T05:09:56.044Z,1.00
2023-02-05T05:13:01.260Z,1.10
2023-02-05T05:16:07.731Z,1.10
2023-02-05T05:19:14.097Z,1.10
2023-02-05T05:22:22.686Z,1.40
2023-02-05T05:25:28.107Z,1.00
2023-02-05T05:28:34.938Z,1.20
2023-02-05T05:31:40.256Z,1.20
2023-02-05T05:34:45.528Z,1.37
2023-02-05T05:37:51.822Z,1.00
2023-02-05T05:41:14.511Z,1.20
2023-02-05T05:44:19.570Z,1.10
2023-02-05T05:47:24.709Z,1.00
2023-02-05T05:50:29.823Z,1.00
2023-02-05T05:53:40.963Z,1.10
2023-02-05T05:56:46.493Z,1.00
2023-02-05T05:59:51.345Z,1.30
2023-02-05T06:02:56.519Z,0.90
2023-02-05T06:06:02.657Z,1.00
2023-02-05T06:09:09.218Z,0.80
2023-02-05T06:12:15.259Z,0.90
2023-02-05T06:15:20.737Z,1.00
2023-02-05T06:18:26.072Z,1.20
2023-02-05T06:21:31.099Z,0.93
2023-02-05T06:24:37.634Z,1.20
2023-02-05T06:27:42.819Z,1.00
2023-02-05T06:30:48.121Z,1.17
2023-02-05T06:33:53.017Z,1.00
2023-02-05T06:36:58.349Z,1.10
2023-02-05T06:40:05.661Z,0.90
2023-02-05T06:43:10.889Z,0.90
2023-02-05T06:46:16.265Z,0.90
2023-02-05T06:49:21.264Z,0.80
2023-02-05T06:52:26.469Z,1.20
2023-02-05T06:55:33.726Z,1.10
2023-02-05T06:58:38.849Z,1.00
2023-02-05T07:01:44.003Z,0.90
2023-02-05T07:04:49.030Z,0.90
2023-02-05T07:07:54.322Z,1.00
2023-02-05T07:11:00.833Z,1.00
2023-02-05T07:14:06.305Z,1.00
2023-02-05T07:17:12.484Z,1.00
2023-02-05T07:20:18.869Z,1.07
2023-02-05T07:23:24.101Z,1.00
2023-02-05T07:26:30.321Z,1.00
2023-02-05T07:29:35.639Z,1.00
2023-02-05T07:32:40.982Z,0.80
2023-02-05T07:35:46.080Z,1.00
2023-02-05T07:38:53.262Z,0.97
2023-02-05T07:41:59.941Z,1.10
2023-02-05T07:45:14.783Z,1.20
2023-02-05T07:48:19.846Z,0.93
2023-02-05T07:51:26.781Z,0.83
2023-02-05T07:54:32.031Z,1.20
2023-02-05T07:57:41.153Z,1.10
2023-02-05T08:00:46.603Z,1.10
2023-02-05T08:03:54.329Z,1.17
2023-02-05T08:06:59.533Z,1.00
2023-02-05T08:10:04.977Z,0.93
2023-02-05T08:13:12.171Z,1.50
2023-02-05T08:16:17.943Z,1.20
2023-02-05T08:19:22.942Z,1.17
2023-02-05T08:22:28.881Z,1.20
2023-02-05T08:25:34.212Z,1.17
2023-02-05T08:28:40.933Z,1.10
2023-02-05T08:31:46.270Z,1.00
2023-02-05T08:34:51.302Z,1.00
2023-02-05T08:37:56.643Z,1.10
2023-02-05T08:41:12.470Z,0.80
2023-02-05T08:44:19.328Z,1.03
2023-02-05T08:47:30.511Z,1.30
2023-02-05T08:50:38.778Z,1.40
2023-02-05T08:53:43.775Z,1.20
2023-02-05T08:56:52.031Z,1.10
2023-02-05T08:59:59.370Z,1.10
2023-02-05T09:03:04.917Z,1.10
2023-02-05T09:06:12.083Z,1.00
2023-02-05T09:09:17.398Z,0.93
2023-02-05T09:12:22.613Z,1.30
2023-02-05T09:15:29.370Z,1.17
2023-02-05T09:18:34.356Z,1.17
2023-02-05T09:21:39.432Z,1.30
2023-02-05T09:24:44.665Z,1.10
2023-02-05T09:27:49.794Z,1.20
2023-02-05T09:30:56.524Z,1.40
2023-02-05T09:34:04.681Z,1.40
2023-02-05T09:37:13.016Z,1.40
2023-02-05T09:40:22.139Z,1.10
2023-02-05T09:43:36.135Z,1.00
2023-02-05T09:46:47.966Z,0.80
2023-02-05T09:50:01.351Z,1.10
2023-02-05T09:53:08.524Z,1.07
2023-02-05T09:56:16.871Z,1.10
2023-02-05T09:59:24.405Z,0.90
2023-02-05T10:02:38.498Z,0.90
2023-02-05T10:05:48.206Z,1.03
2023-02-05T10:08:58.336Z,1.10
2023-02-05T10:12:12.534Z,1.00
2023-02-05T10:15:27.253Z,0.90
2023-02-05T10:18:39.832Z,1.00
2023-02-05T10:21:57.976Z,1.00
2023-02-05T10:25:26.326Z,1.10
2023-02-05T10:28:46.387Z,0.90
2023-02-05T10:32:00.824Z,1.00
2023-02-05T10:35:15.035Z,1.00
2023-02-05T10:38:24.830Z,2.37
2023-02-05T10:41:36.836Z,1.60
2023-02-05T10:44:46.006Z,1.20
2023-02-05T10:48:25.728Z,1.07
2023-02-05T10:51:36.732Z,1.00
2023-02-05T10:54:42.352Z,1.10
2023-02-05T10:57:48.037Z,1.20
2023-02-05T11:00:53.282Z,1.20
2023-02-05T11:04:02.555Z,1.00
2023-02-05T11:07:16.362Z,1.17
2023-02-05T11:10:23.466Z,1.10
2023-02-05T11:13:30.196Z,1.10
2023-02-05T11:16:42.398Z,1.07
2023-02-05T11:19:55.360Z,1.00
2023-02-05T11:23:19.243Z,1.10
2023-02-05T11:26:28.832Z,1.20
2023-02-05T11:29:34.035Z,1.03
2023-02-05T11:32:39.961Z,1.27
2023-02-05T11:35:52.550Z,1.20
2023-02-05T11:39:01.985Z,1.37
2023-02-05T11:42:16.775Z,1.23
2023-02-05T11:45:23.239Z,1.10
2023-02-05T11:48:36.515Z,1.37
2023-02-05T11:51:44.772Z,1.30
2023-02-05T11:54:51.814Z,1.40
2023-02-05T11:58:02.022Z,1.10
2023-02-05T12:01:21.837Z,1.20
2023-02-05T12:04:28.444Z,1.10
2023-02-05T12:07:39.320Z,1.13
2023-02-05T12:10:52.464Z,1.30
2023-02-05T12:14:08.304Z,1.10
2023-02-05T12:17:37.078Z,1.20
2023-02-05T12:20:46.218Z,1.40
2023-02-05T12:24:11.660Z,1.20
2023-02-05T12:27:31.586Z,1.37
2023-02-05T12:30:49.258Z,1.40
2023-02-05T12:34:17.231Z,1.50
2023-02-05T12:41:02.422Z,1.40
2023-02-05T12:44:22.739Z,1.37
2023-02-05T12:47:45.077Z,1.00
2023-02-05T12:50:56.486Z,1.50
2023-02-05T12:54:15.010Z,1.50
2023-02-05T12:57:22.044Z,1.40
2023-02-05T13:00:34.466Z,1.20
2023-02-05T13:03:42.459Z,1.23
2023-02-05T13:06:52.797Z,1.40
2023-02-05T13:10:01.542Z,1.70
2023-02-05T13:13:12.584Z,1.60
2023-02-05T13:16:20.274Z,1.53
2023-02-05T13:19:29.935Z,1.43
2023-02-05T13:22:55.571Z,1.70
2023-02-05T13:26:19.403Z,1.57
2023-02-05T13:29:27.103Z,1.50
2023-02-05T13:32:34.700Z,1.40
2023-02-05T13:35:44.849Z,1.60
2023-02-05T13:39:03.178Z,1.70
2023-02-05T13:42:37.976Z,1.37
2023-02-05T13:46:13.736Z,1.40
2023-02-05T13:49:52.028Z,1.40
2023-02-05T13:53:17.671Z,1.30
2023-02-05T13:56:49.347Z,1.60
2023-02-05T13:59:55.525Z,1.57
2023-02-05T14:03:05.680Z,1.67
2023-02-05T14:06:21.864Z,1.40
2023-02-05T14:09:37.155Z,1.60
2023-02-05T14:12:42.567Z,1.40
2023-02-05T14:15:47.891Z,1.53
2023-02-05T14:19:11.970Z,1.70
2023-02-05T14:22:39.928Z,1.40
2023-02-05T14:26:11.457Z,1.50
2023-02-05T14:29:40.719Z,1.70
2023-02-05T14:32:59.656Z,1.50
2023-02-05T14:36:34.700Z,1.50
2023-02-05T14:39:40.639Z,1.63
2023-02-05T14:42:48.594Z,1.40
2023-02-05T14:45:54.588Z,1.67
2023-02-05T14:49:01.263Z,1.60
2023-02-05T14:52:19.880Z,1.70
2023-02-05T14:55:31.494Z,1.50
2023-02-05T14:58:40.945Z,1.60
2023-02-05T15:01:50.590Z,1.80
2023-02-05T15:04:57.357Z,1.70
2023-02-05T15:08:12.379Z,1.57
2023-02-05T15:11:24.668Z,1.70
2023-02-05T15:14:44.613Z,1.63
2023-02-05T15:17:53.905Z,2.00
2023-02-05T15:21:00.799Z,1.90
2023-02-05T15:24:11.297Z,2.00
2023-02-05T15:27:20.242Z,2.00
2023-02-05T15:30:29.553Z,1.80
2023-02-05T15:33:44.721Z,1.90
2023-02-05T15:36:54.749Z,1.90
2023-02-05T15:40:03.905Z,2.20
2023-02-05T15:43:17.013Z,1.90
2023-02-05T15:46:23.642Z,1.80
2023-02-05T15:49:38.811Z,1.90
2023-02-05T15:52:44.162Z,2.00
2023-02-05T15:55:50.363Z,2.63
2023-02-05T15:58:56.768Z,2.00
2023-02-05T16:02:06.772Z,1.83
2023-02-05T16:05:19.894Z,1.77
2023-02-05T16:08:28.527Z,1.97
2023-02-05T16:11:35.356Z,1.97
2023-02-05T16:14:40.707Z,2.17
2023-02-05T16:17:51.433Z,2.70
2023-02-05T16:20:59.447Z,1.97
2023-02-05T16:24:06.268Z,2.50
2023-02-05T16:27:15.092Z,2.40
2023-02-05T16:30:24.494Z,2.20
2023-02-05T16:33:34.837Z,2.10
2023-02-05T16:36:43.656Z,2.20
2023-02-05T16:39:54.197Z,2.03
2023-02-05T16:43:01.895Z,2.60
2023-02-05T16:46:28.675Z,2.03
2023-02-05T16:49:35.221Z,2.00
2023-02-05T16:52:41.504Z,2.30
2023-02-05T16:55:46.505Z,2.00
2023-02-05T16:58:54.124Z,2.30
2023-02-05T17:02:00.758Z,2.37
2023-02-05T17:05:09.505Z,2.57
2023-02-05T17:08:17.367Z,2.17
2023-02-05T17:11:38.441Z,2.30
2023-02-05T17:14:55.257Z,2.30
2023-02-05T17:18:06.396Z,2.20
2023-02-05T17:21:28.269Z,2.33
2023-02-05T17:24:33.366Z,2.60
2023-02-05T17:27:40.187Z,2.27
2023-02-05T17:30:48.541Z,2.57
2023-02-05T17:33:55.025Z,2.63
2023-02-05T17:37:02.672Z,2.27
2023-02-05T17:40:10.194Z,2.60
2023-02-05T17:43:15.389Z,2.47
2023-02-05T17:46:20.600Z,2.50
2023-02-05T17:49:25.530Z,2.37
2023-02-05T17:52:32.457Z,2.33
2023-02-05T17:55:38.452Z,2.57
2023-02-05T17:58:46.578Z,2.40
2023-02-05T18:01:52.630Z,2.30
2023-02-05T18:04:57.859Z,2.30
2023-02-05T18:08:04.533Z,2.47
2023-02-05T18:11:10.444Z,2.60
2023-02-05T18:14:16.258Z,2.40
2023-02-05T18:17:21.467Z,2.73
2023-02-05T18:20:26.687Z,2.10
2023-02-05T18:23:33.476Z,2.40
2023-02-05T18:26:38.591Z,2.60
2023-02-05T18:29:43.983Z,2.77
2023-02-05T18:32:49.146Z,2.67
2023-02-05T18:35:56.170Z,2.50
2023-02-05T18:39:04.326Z,2.33
2023-02-05T18:42:09.853Z,2.77
2023-02-05T18:45:15.016Z,2.77
2023-02-05T18:48:20.335Z,2.80
2023-02-05T18:51:25.890Z,3.20
2023-02-05T18:54:32.575Z,2.80
2023-02-05T18:57:37.821Z,3.10
2023-02-05T19:00:43.107Z,3.07
2023-02-05T19:03:48.281Z,3.00
2023-02-05T19:06:54.608Z,2.93
2023-02-05T19:10:02.562Z,2.83
2023-02-05T19:13:09.257Z,2.80
2023-02-05T19:16:16.983Z,2.70
2023-02-05T19:19:27.537Z,3.00
2023-02-05T19:22:34.077Z,2.77
2023-02-05T19:25:40.839Z,2.77
2023-02-05T19:28:47.106Z,2.80
2023-02-05T19:31:53.479Z,2.77
2023-02-05T19:35:00.039Z,2.77
2023-02-05T19:38:05.807Z,3.00
2023-02-05T19:41:15.570Z,2.67
2023-02-05T19:44:23.815Z,2.63
2023-02-05T19:47:30.044Z,2.83
2023-02-05T19:50:36.373Z,2.77
2023-02-05T19:53:43.261Z,2.77
2023-02-05T19:56:49.841Z,2.83
2023-02-05T19:59:55.174Z,2.80
2023-02-05T20:03:00.069Z,2.80
2023-02-05T20:06:06.528Z,5.27
2023-02-05T20:09:12.199Z,3.20
2023-02-05T20:12:19.198Z,3.23
2023-02-05T20:15:24.778Z,2.80
2023-02-05T20:18:30.263Z,2.67
2023-02-05T20:21:35.411Z,2.57
2023-02-05T20:24:40.418Z,2.60
2023-02-05T20:27:49.426Z,3.07
2023-02-05T20:31:12.095Z,3.17
2023-02-05T20:34:19.538Z,2.83
2023-02-05T20:37:24.893Z,2.50
2023-02-05T20:40:30.367Z,2.70
2023-02-05T20:43:46.535Z,2.77
2023-02-05T20:46:52.211Z,2.43
2023-02-05T20:49:57.444Z,3.10
2023-02-05T20:53:02.832Z,2.80
2023-02-05T20:56:09.467Z,3.00
2023-02-05T20:59:16.063Z,3.33
2023-02-05T21:02:22.402Z,2.87
2023-02-05T21:05:28.008Z,2.33
2023-02-05T21:08:33.508Z,2.70
2023-02-05T21:11:40.068Z,2.37
2023-02-05T21:14:54.623Z,2.90
2023-02-05T21:17:59.491Z,2.43
2023-02-05T21:21:08.943Z,2.40
2023-02-05T21:24:16.173Z,2.93
2023-02-05T21:27:23.178Z,2.63
2023-02-05T21:30:30.553Z,2.57
2023-02-05T21:33:36.126Z,2.37
2023-02-05T21:36:42.010Z,2.33
2023-02-05T21:39:48.055Z,2.50
2023-02-05T21:42:53.313Z,2.40
2023-02-05T21:46:03.241Z,2.33
2023-02-05T21:49:08.767Z,2.47
2023-02-05T21:52:17.933Z,2.40
2023-02-05T21:55:26.876Z,2.27
2023-02-05T21:58:33.673Z,2.50
2023-02-05T22:01:40.558Z,2.10
2023-02-05T22:04:45.943Z,2.40
2023-02-05T22:07:50.749Z,2.37
2023-02-05T22:10:55.872Z,2.30
2023-02-05T22:14:01.437Z,2.83
2023-02-05T22:17:08.003Z,2.17
2023-02-05T22:20:14.557Z,2.30
2023-02-05T22:23:21.371Z,2.40
2023-02-05T22:26:29.366Z,2.03
2023-02-05T22:29:35.065Z,2.00
2023-02-05T22:32:41.551Z,2.37
2023-02-05T22:35:46.669Z,2.30
2023-02-05T22:38:52.999Z,2.50
2023-02-05T22:41:57.843Z,2.13
2023-02-05T22:45:06.590Z,2.30
2023-02-05T22:48:15.664Z,1.97
2023-02-05T22:51:23.223Z,2.17
2023-02-05T22:54:28.383Z,2.20
2023-02-05T22:57:33.853Z,2.23
2023-02-05T23:00:38.697Z,2.10
2023-02-05T23:03:49.348Z,2.00
2023-02-05T23:06:54.579Z,2.47
2023-02-05T23:09:59.795Z,2.40
2023-02-05T23:13:04.775Z,1.93
2023-02-05T23:16:14.756Z,1.67
2023-02-05T23:19:24.262Z,2.07
2023-02-05T23:22:29.683Z,1.90
2023-02-05T23:25:38.086Z,1.93
2023-02-05T23:28:43.378Z,1.90
2023-02-05T23:31:48.967Z,2.07
2023-02-05T23:34:55.494Z,1.93
2023-02-05T23:38:00.585Z,1.70
2023-02-05T23:41:06.431Z,1.90
2023-02-05T23:44:15.682Z,1.70
2023-02-05T23:47:20.881Z,1.70
2023-02-05T23:50:29.568Z,1.53
2023-02-05T23:53:34.773Z,1.60
2023-02-05T23:56:40.139Z,1.50
2023-02-05T23:59:45.220Z,1.80
